NWS Home NWS Lubbock West Texas Mesonet Central Sector Latest Conditions as of 0307 PM, Sat Jan 19, 2019

Latest   N   C   S   Daily Sum   3hrΔ   24hrΔ   Soil Data 
Site Map   24hr Precip   72hr Precip   Google Plot


Station Time of Last Temp Dew Pt. RH Wind Direction Wind Speed Wind Gust Max Wind Max Temp Min Temp Max RH Min RH Altimeter 1HR Rain Today's Rain Solar Rad Wind Chill
Abernathy 5ENE  03:00 PM 50 25 38% N1924 38 mph 347° @ 0215 AM 50 23 92 38 30.26" 0 0.00 539  
Aiken 3WSW  03:00 PM 47 27 45% N2127 42 mph 350° @ 0112 AM 47 24 90 42 30.27" 0 0.00 547  
Amherst 1NE  03:00 PM 49 29 45% NW1114 40 mph 329° @ 1255 AM 50 29 88 45 30.26" 0 0.00 533  
Anton 6SSW  03:00 PM 51 27 40% NW1319 37 mph 337° @ 1210 AM 51 28 87 39 30.26" 0 0.00 542  
Aspermont 3NE  03:00 PM 48 27 44% NW1926 38 mph 332° @ 1235 AM 48 32 92 44 30.26" 0 0.00 517  
Bootleg 11WNW  03:00 PM 49 26 41% E46 33 mph 329° @ 0330 AM 49 24 93 38 30.25" 0 0.03 481  
Brownfield 2S  03:00 PM 54 26 34% NW1115 34 mph 346° @ 1250 AM 54 32 85 33 30.26" 0 0.00 544  
Caprock Canyons State Park  03:00 PM 45 26 47% N1424 41 mph 329° @ 1240 AM 45 30 78 46 30.27" 0 0.00 527  
Childress 2NNE  03:00 PM 43 19 38% N1724 49 mph 336° @ 0355 AM 43 29 80 38 30.25" 0 0.00 486  
Clarendon 2WSW  03:00 PM 41 26 54% N2227 46 mph 342° @ 0145 AM 41 28 82 54 30.24" 0 0.00 501  
Claude 12SW  03:00 PM 42 25 51% NW1820 44 mph 336° @ 1224 AM 43 24 92 50 30.25" 0 0.00 533  
Crowell 1E  03:00 PM 42 17 36% N2528 42 mph 342° @ 1213 AM 43 31 93 35 30.27" 0 0.00 521  
Denver City 7WNW  03:00 PM 55 17 23% W710 38 mph 339° @ 1255 AM 55 29 89 22 30.26" 0 0.00 549  
Dimmitt 2NE  03:00 PM 46 31 56% NW1317 38 mph 348° @ 1235 AM 46 25 95 56 30.25" 0 0.00 543  
Dora NM 2SW  03:00 PM 53 20 27% W49 31 mph 349° @ 1220 AM 54 28 90 27 30.25" 0 0.00 499  
Earth 9WSW  03:00 PM 50 30 46% N1114 36 mph 338° @ 1228 AM 50 28 89 44 30.27" 0 0.00 512  
Estelline 3SSE  03:00 PM 46 22 39% NW2025 41 mph 342° @ 0253 AM 46 31 68 38 30.27" 0 0.00 490  
Floydada 2NNE  03:00 PM 48 23 37% NW1924 41 mph 338° @ 0240 AM 49 27 93 37 30.25" 0 0.00 522  
Fluvanna 3WNW  03:00 PM 51 27 39% NW2125 44 mph 343° @ 1220 AM 52 31 93 38 30.25" 0 0.00 521  
Friona 2NE  03:00 PM 48 29 48% NW712 37 mph 343° @ 0100 AM 48 25 100 48 30.26" 0 0.02 532  
Gail 2ESE  03:00 PM 55 26 32% NW2027 45 mph 339° @ 0110 AM 56 34 76 32 30.26" 0 0.00 535  
Goodlett 3W  03:00 PM 41 16 35% NW2532 43 mph 333° @ 0405 AM 42 30 86 34 30.26" 0 0.00 513  
Graham 5SSW  03:00 PM 53 26 36% NW1622 59 mph 345° @ 1235 AM 53 30 91 36 30.26" 0 0.00 518  
Guthrie 10WSW  03:00 PM 48 24 39% N1827 41 mph 334° @ 1215 AM 48 30 89 39 30.26" 0 0.00 485  
Hackberry 2 SSE  03:00 PM 46 23 41% N2022 40 mph 339° @ 1214 AM 46 31 97 40 30.26" 0 0.01 546  
Happy 1E  03:00 PM 45 27 49% NW1619 42 mph 348° @ 1219 AM 45 22 91 48 30.26" 0 0.00 524  
Hart 3N  03:00 PM 47 29 50% NW1418 41 mph 338° @ 1205 AM 47 24 96 48 30.26" 0 0.00 532  
Haskell 1NW  03:00 PM 46 24 42% NW2228 43 mph 339° @ 1250 AM 46 31 96 42 30.25" 0 0.00 499  
Hereford 2NW  03:00 PM 48 29 48% N1013 35 mph 354° @ 0105 AM 48 25 89 48 30.25" 0 0.02 554  
Hobbs NM 5NW  03:00 PM 54 19 25% SW68 37 mph 352° @ 1202 AM 55 32 78 24 30.29" 0 0.00 555  
Jayton 1SSE  03:00 PM 50 25 38% N2025 39 mph 331° @ 1245 AM 50 31 79 38 30.27" 0 0.00 531  
Knox City 3NW  03:00 PM 48 26 42% NW1725 40 mph 333° @ 0100 AM 48 32 98 41 30.27" 0 0.02 451  
Lake Alan Henry 1NW  03:00 PM 53 27 36% NW1417 37 mph 338° @ 1204 AM 53 31 94 36 30.25" 0 0.01 515  
Lamesa 2SE  03:00 PM 55 27 35% NW1522 40 mph 334° @ 1205 AM 55 33 80 35 30.27" 0 0.00 579  
Lesley 2S  03:00 PM 47 26 44% NW1921 43 mph 317° @ 0213 AM 47 31 73 43 30.26" 0 0.00 533  
Levelland 4S  03:00 PM 52 25 34% NW813 36 mph 333° @ 0215 AM 53 29 89 33 30.26" 0 0.00 540  
Lubbock 3WNW TTU  03:00 PM 52 25 34% N1219 34 mph 343° @ 0140 AM 53 28 98 34 30.26" 0 0.00 557  
Memphis 1NE  03:00 PM 44 23 43% NW1723 54 mph 356° @ 1205 AM 45 30 73 42 30.25" 0 0.00 456  
Morton 1ENE  03:00 PM 53 24 33% W812 36 mph 344° @ 1215 AM 53 30 86 33 30.26" 0 0.00 517  
Muleshoe 2SSW  03:00 PM 51 27 41% NW510 28 mph 334° @ 1230 AM 51 27 93 40 30.26" 0 0.00 532  
New Home  03:00 PM 53 27 36% N1213 37 mph 347° @ 0232 AM 53 30 92 35 30.27" 0 0.00 535  
Northfield 1S  03:00 PM 46 24 41% N1522 38 mph 342° @ 0330 AM 46 30 96 41 30.26" 0 0.05 510  
O'Donnell 1N  03:00 PM 54 23 30% NW1722 41 mph 336° @ 1230 AM 54 30 82 30 30.26" 0 0.00 491  
Odell 4ENE  03:00 PM 41 15 35% N2227 44 mph 342° @ 1209 AM 41 29 78 35 30.27" 0 0.00 498  
Olton 6S  03:00 PM 49 27 43% N1523 43 mph 342° @ 0115 AM 49 25 92 42 30.26" 0 0.00 487  
Paducah 10SW  03:00 PM 47 25 41% N2127 43 mph 347° @ 1205 AM 47 30 97 40 30.26" 0 0.00 462  
Palo Duro 4E (JA Ranch)  03:00 PM 45 27 49% NW1619 46 mph 342° @ 0151 AM 45 29 79 48 30.27" 0 0.00 502  
Palo Duro Canyon SP Floor  03:00 PM 49 27 42% NW1115 35 mph 336° @ 1255 AM 49 28 84 43 30.26" 0 0.00 496  
Palo Duro Canyon State Park Rim  03:00 PM 45 25 45% NW1017 40 mph 338° @ 0104 AM 46 25 83 45 30.27" 0 0.02 538  
Plains 3N  03:00 PM 54 20 27% W616 44 mph 335° @ 1215 AM 54 27 88 27 30.26" 0 0.00 550  
Plainview 1S  03:00 PM 48 26 44% NW1622 34 mph 334° @ 0100 AM 48 26 91 43 30.25" 0 0.00 484  
Post 1NE  03:00 PM 54 24 31% NW1824 44 mph 339° @ 1205 AM 54 32 83 31 30.26" 0 0.00 535  
Ralls 1SE  03:00 PM 50 23 35% NW2026 38 mph 335° @ 1210 AM 50 29 86 35 30.26" 0 0.00 535  
Reese Center  03:00 PM 52 26 36% NW1522 37 mph 345° @ 0205 AM 52 26 90 36 30.26" 0 0.00 560  
Roaring Springs 3N  03:00 PM 46 27 48% NW1824 40 mph 342° @ 0930 AM 46 29 100 48 30.25" 0 0.00 478  
Rotan 5W  03:00 PM 51 25 37% NW2226 39 mph 325° @ 0120 AM 51 33 96 37 30.26" 0 0.02 546  
Seagraves 1SW  03:00 PM 56 22 26% NW812 41 mph 329° @ 1245 AM 56 29 85 24 30.26" 0 0.00 496  
Seminole 2NNE  03:00 PM 56 20 24% NW1117 37 mph 333° @ 0115 AM 56 31 78 24 30.26" 0 0.00 564  
Seymour 3NW  03:00 PM 42 19 39% NW2330 44 mph 334° @ 0110 AM 42 31 94 39 30.26" 0 0.02 516  
Silverton 7ESE  03:00 PM 45 25 44% NW1924 43 mph 338° @ 0300 AM 45 27 84 44 30.25" 0 0.00 498  
Slaton 2NE  03:00 PM 52 26 36% N1423 48 mph 344° @ 1205 AM 52 29 94 36 30.26" 0 0.00 490  
Snyder 3E  03:00 PM 53 27 37% NW2027 46 mph 329° @ 1210 AM 53 31 99 37 30.24" 0 0.00 480  
Snyder 3SSW  03:00 PM 52 27 38% NW1619 45 mph 332° @ 1205 AM 53 32 95 37 30.26" 0 0.00 518  
South Plains 3ENE  03:00 PM 47 25 41% NW1519 36 mph 341° @ 0317 AM 47 26 90 40 30.25" 0 0.00 501  
Spur 1W  03:00 PM 51 23 33% N1621 40 mph 347° @ 1220 AM 51 30 93 33 30.25" 0 0.00 529  
Stamford 5ESE  03:00 PM 46 27 47% N2326 41 mph 336° @ 0248 AM 47 33 93 46 30.26" 0 0.00 505  
Sundown 8WSW  03:00 PM 53 23 31% W912 38 mph 335° @ 1220 AM 54 30 88 31 30.26" 0 0.00 486  
Tahoka 3NNE  03:00 PM 54 25 32% NW1417 41 mph 341° @ 1207 AM 54 29 88 31 30.26" 0 0.00 537  
Tatum NM 2SW  03:00 PM 53 17 24% W812 30 mph 343° @ 0130 AM 53 26 88 23 30.27" 0 0.00 598  
Throckmorton 1SW  03:00 PM 43 20 40% NW1621 44 mph 324° @ 1222 AM 44 33 93 39 30.26" 0 0.00 514  
Tulia 2ENE  03:00 PM 46 25 45% NW1923 45 mph 334° @ 0115 AM 46 22 88 44 30.26" 0 0.00 476  
Turkey 2WSW  03:00 PM 46 25 46% NW1725 44 mph 314° @ 0220 AM 46 29 77 46 30.25" 0 0.00 458  
Umbarger 3NNE  03:00 PM 44 29 55% N1113 40 mph 349° @ 0133 AM 44 20 93 54 30.26" 0 0.02 490  
Vigo Park  03:00 PM 46 25 45% NW1618 44 mph 343° @ 1240 AM 46 26 87 44 30.26" 0 0.00 479  
Weinert 2NNE  03:00 PM 45 21 39% N1923 42 mph 343° @ 0132 AM 45 32 90 38 30.27" 0 0.02 518  
Welch  03:00 PM 55 27 34% N1214 37 mph 334° @ 0139 AM 55 30 82 34 30.27" 0 0.00 532  
White River Lake 6NW  03:00 PM 52 23 31% NW1927 46 mph 331° @ 1205 AM 52 30 88 31 30.25" 0 0.00 518  
Wolfforth 6SSW  03:00 PM 52 27 38% NW1520 41 mph 336° @ 1210 AM 52 28 90 37 30.26" 0 0.00 523  

West Texas Mesonet Home   Site Map/Menu  NWS Lubbock Soil Data  Daily Summary Page  24hr Precip  72hr Precip  Google Plot